Time;durP1;ratioP1;P1;durP2;ratioP2;P2;SDS_P1;SDS_P2;PMS_P1;PMS_P2;Temp;Humidity;BMP_temperature;BMP_pressure;BME280_temperature;BME280_humidity;BME280_pressure;Samples;Min_cycle;Max_cycle;Signal;HPM_P1;HPM_P2
2023/08/05 00:01:15;;;;;;;12.18;8.98;;;14.90;87.00;;;;;;4965338;28;20081;-76
2023/08/05 00:03:41;;;;;;;12.88;9.32;;;14.90;87.00;;;;;;4976771;28;20742;-75
2023/08/05 00:06:07;;;;;;;12.10;9.85;;;14.90;87.00;;;;;;4964361;28;20051;-75
2023/08/05 00:08:33;;;;;;;13.93;10.38;;;14.80;87.10;;;;;;4968737;28;20436;-73
2023/08/05 00:11:01;;;;;;;12.13;9.93;;;14.80;87.20;;;;;;4953929;28;20043;-75
2023/08/05 00:13:27;;;;;;;13.98;10.52;;;14.80;87.20;;;;;;4946595;28;20039;-75
2023/08/05 00:15:52;;;;;;;14.45;10.60;;;14.80;87.30;;;;;;4954904;28;20031;-75
2023/08/05 00:18:18;;;;;;;15.48;10.82;;;14.80;87.30;;;;;;4953304;28;20029;-75
2023/08/05 00:20:44;;;;;;;12.05;9.95;;;14.90;87.30;;;;;;4947985;28;20083;-74
2023/08/05 00:23:09;;;;;;;14.02;11.02;;;14.90;87.20;;;;;;4955673;28;20023;-77
2023/08/05 00:25:35;;;;;;;12.40;10.07;;;15.00;87.30;;;;;;4952774;28;20514;-75
2023/08/05 00:28:01;;;;;;;14.40;11.32;;;15.00;86.90;;;;;;4970056;28;20042;-74
2023/08/05 00:30:26;;;;;;;12.85;9.82;;;14.90;87.10;;;;;;4963817;28;20045;-76
2023/08/05 00:32:52;;;;;;;14.00;10.27;;;14.90;87.30;;;;;;4967429;28;20043;-76
2023/08/05 00:35:18;;;;;;;15.55;10.15;;;15.00;87.40;;;;;;4967341;28;20039;-74
2023/08/05 00:37:44;;;;;;;12.88;10.02;;;15.00;87.40;;;;;;4968495;28;20029;-75
2023/08/05 00:40:10;;;;;;;12.35;8.63;;;15.10;87.30;;;;;;4967192;28;20671;-73
2023/08/05 00:42:35;;;;;;;15.35;10.02;;;15.10;87.30;;;;;;4967869;28;20059;-75
2023/08/05 00:45:01;;;;;;;13.23;10.82;;;15.10;87.30;;;;;;4962630;28;20082;-75
2023/08/05 00:47:27;;;;;;;11.18;8.80;;;15.10;87.30;;;;;;4962643;28;20034;-76
2023/08/05 00:49:55;;;;;;;14.57;9.90;;;15.10;87.40;;;;;;4967354;28;20033;-74
2023/08/05 00:52:23;;;;;;;14.95;10.27;;;15.10;87.50;;;;;;4965222;28;20039;-76
2023/08/05 00:54:50;;;;;;;15.93;10.48;;;15.10;87.70;;;;;;4966871;28;20492;-75
2023/08/05 00:57:17;;;;;;;13.50;9.32;;;15.10;88.00;;;;;;4965155;28;20046;-73
2023/08/05 00:59:43;;;;;;;11.88;9.65;;;15.10;88.00;;;;;;4972589;28;20519;-74
2023/08/05 01:02:09;;;;;;;13.43;10.38;;;15.10;88.00;;;;;;4969791;28;20043;-76
2023/08/05 01:04:35;;;;;;;11.80;9.95;;;15.10;88.00;;;;;;4968656;28;20034;-76
2023/08/05 01:07:02;;;;;;;14.40;10.13;;;15.20;88.00;;;;;;4972329;28;20046;-74
2023/08/05 01:09:29;;;;;;;15.50;11.30;;;15.10;87.90;;;;;;4969317;28;20022;-76
2023/08/05 01:11:54;;;;;;;15.07;11.38;;;15.20;88.00;;;;;;4966985;28;20039;-76
2023/08/05 01:14:20;;;;;;;15.10;11.43;;;15.20;87.90;;;;;;4968047;28;20121;-76
2023/08/05 01:16:46;;;;;;;15.20;11.20;;;15.20;87.90;;;;;;4968012;28;20446;-77
2023/08/05 01:19:20;;;;;;;12.95;11.52;;;15.20;87.80;;;;;;4970196;28;20031;-76
2023/08/05 01:22:04;;;;;;;13.20;9.98;;;15.10;87.90;;;;;;4959805;28;20059;-76
2023/08/05 01:24:52;;;;;;;14.85;11.05;;;15.20;87.90;;;;;;4952216;28;20031;-76
2023/08/05 01:27:18;;;;;;;14.77;11.00;;;15.20;88.00;;;;;;4946504;28;20123;-76
2023/08/05 01:29:44;;;;;;;15.55;11.60;;;15.20;88.00;;;;;;4958109;28;20119;-76
2023/08/05 01:32:10;;;;;;;16.17;11.40;;;15.20;87.80;;;;;;4948521;28;20043;-77
2023/08/05 01:34:37;;;;;;;13.90;10.70;;;15.20;88.00;;;;;;4956092;28;20062;-76
2023/08/05 01:37:03;;;;;;;14.00;11.18;;;15.20;88.00;;;;;;4950542;28;20035;-75
2023/08/05 01:39:29;;;;;;;14.20;11.50;;;15.20;88.10;;;;;;4953199;28;20046;-74
2023/08/05 01:41:54;;;;;;;14.45;11.73;;;15.20;88.00;;;;;;4956679;28;20507;-75
2023/08/05 01:44:21;;;;;;;16.52;11.85;;;15.10;88.00;;;;;;4951431;28;20039;-73
2023/08/05 01:46:46;;;;;;;15.90;11.90;;;15.20;88.00;;;;;;4952239;28;20488;-75
2023/08/05 01:49:12;;;;;;;17.77;11.75;;;15.20;88.00;;;;;;4948884;28;20062;-76
2023/08/05 01:51:38;;;;;;;14.93;11.00;;;15.20;88.10;;;;;;4950776;28;20047;-75
2023/08/05 01:54:03;;;;;;;15.00;11.13;;;15.10;88.00;;;;;;4954867;28;20062;-75
2023/08/05 01:56:29;;;;;;;16.33;11.75;;;15.10;88.00;;;;;;4954224;28;20432;-77
2023/08/05 01:58:55;;;;;;;14.07;11.07;;;15.10;88.00;;;;;;4957644;28;20091;-74
2023/08/05 02:01:21;;;;;;;15.80;10.95;;;15.10;88.00;;;;;;4953646;28;20126;-76
2023/08/05 02:03:46;;;;;;;17.50;11.82;;;15.10;88.00;;;;;;4950682;28;20375;-74
2023/08/05 02:06:14;;;;;;;15.43;11.05;;;15.10;88.10;;;;;;4968578;28;20474;-75
2023/08/05 02:08:39;;;;;;;17.80;11.93;;;15.20;88.20;;;;;;4970408;28;20760;-75
2023/08/05 02:11:05;;;;;;;14.57;11.27;;;15.10;88.20;;;;;;4967301;28;20034;-77
2023/08/05 02:13:31;;;;;;;14.60;11.38;;;15.10;88.20;;;;;;4970027;28;20111;-76
2023/08/05 02:15:56;;;;;;;13.57;11.38;;;15.10;88.30;;;;;;4969512;28;20038;-76
2023/08/05 02:18:22;;;;;;;14.52;10.98;;;15.20;88.40;;;;;;4968031;28;20027;-74
2023/08/05 02:20:48;;;;;;;16.25;12.35;;;15.20;88.30;;;;;;4966375;28;20038;-76
2023/08/05 02:23:13;;;;;;;16.67;11.88;;;15.10;88.30;;;;;;4968315;28;20029;-78
2023/08/05 02:25:39;;;;;;;14.13;10.98;;;15.10;88.30;;;;;;4969353;28;20073;-76
2023/08/05 02:28:05;;;;;;;14.23;10.93;;;15.10;88.30;;;;;;4969669;28;20563;-77
2023/08/05 02:30:31;;;;;;;14.85;11.20;;;15.10;88.30;;;;;;4963662;28;20038;-74
2023/08/05 02:32:56;;;;;;;13.90;10.65;;;15.10;88.30;;;;;;4944511;28;20113;-74
2023/08/05 02:35:22;;;;;;;12.43;10.35;;;15.10;88.20;;;;;;4944511;28;20039;-74
2023/08/05 02:37:47;;;;;;;12.48;10.88;;;15.10;88.20;;;;;;4943035;29;20042;-73
2023/08/05 02:40:13;;;;;;;15.88;10.82;;;15.10;88.20;;;;;;4941751;28;20031;-78
2023/08/05 02:42:39;;;;;;;12.05;10.20;;;15.10;88.30;;;;;;4937630;28;20047;-75
2023/08/05 02:45:05;;;;;;;13.13;10.30;;;15.10;88.20;;;;;;4937740;28;20039;-76
2023/08/05 02:47:31;;;;;;;13.57;10.80;;;15.10;88.20;;;;;;4943266;29;20023;-75
2023/08/05 02:49:57;;;;;;;13.80;11.05;;;15.10;88.30;;;;;;4942175;28;20036;-74
2023/08/05 02:52:23;;;;;;;15.10;11.00;;;15.00;88.30;;;;;;4941230;28;20244;-75
2023/08/05 02:54:48;;;;;;;16.25;11.50;;;15.00;88.40;;;;;;4944460;28;20662;-76
2023/08/05 02:57:14;;;;;;;17.50;10.43;;;15.00;88.40;;;;;;4939262;28;20037;-76
2023/08/05 02:59:39;;;;;;;14.35;11.48;;;15.10;88.40;;;;;;4940853;29;20636;-76
2023/08/05 03:02:05;;;;;;;14.68;11.50;;;15.00;88.40;;;;;;4942957;28;20045;-77
2023/08/05 03:04:31;;;;;;;15.93;11.60;;;15.00;88.50;;;;;;4944836;28;20165;-75
2023/08/05 03:06:56;;;;;;;14.75;10.82;;;15.00;88.60;;;;;;4939632;29;20047;-75
2023/08/05 03:09:22;;;;;;;17.35;12.48;;;15.00;88.60;;;;;;4944497;29;20030;-77
2023/08/05 03:11:48;;;;;;;16.48;12.25;;;15.00;88.70;;;;;;4943770;28;20499;-75
2023/08/05 03:14:14;;;;;;;17.92;12.35;;;15.00;88.80;;;;;;4940205;29;20031;-76
2023/08/05 03:16:41;;;;;;;15.07;11.82;;;15.00;88.90;;;;;;4945633;28;20035;-75
2023/08/05 03:19:07;;;;;;;17.05;11.35;;;15.10;89.00;;;;;;4946199;28;20057;-77
2023/08/05 03:21:32;;;;;;;16.00;11.95;;;15.10;89.00;;;;;;4946093;28;20600;-76
2023/08/05 03:23:58;;;;;;;14.73;11.20;;;15.10;89.00;;;;;;4940832;29;20027;-76
2023/08/05 03:26:24;;;;;;;16.73;12.65;;;15.10;89.10;;;;;;4941341;28;20055;-75
2023/08/05 03:28:49;;;;;;;16.55;12.15;;;15.00;89.20;;;;;;4946948;29;20030;-76
2023/08/05 03:31:15;;;;;;;16.05;11.82;;;15.00;89.20;;;;;;4945250;28;20066;-76
2023/08/05 03:33:42;;;;;;;18.15;12.57;;;15.10;89.20;;;;;;4946549;29;20520;-75
2023/08/05 03:36:07;;;;;;;15.02;10.95;;;15.00;89.20;;;;;;4943204;28;20043;-75
2023/08/05 03:38:33;;;;;;;15.80;11.55;;;15.00;89.30;;;;;;4946055;28;20035;-76
2023/08/05 03:41:05;;;;;;;15.35;11.88;;;15.10;89.40;;;;;;4944216;28;20511;-78
2023/08/05 03:43:30;;;;;;;20.40;12.48;;;15.00;89.50;;;;;;4945594;28;20035;-78
2023/08/05 03:45:56;;;;;;;17.90;11.77;;;15.00;89.50;;;;;;4943648;28;20047;-77
2023/08/05 03:48:22;;;;;;;17.73;11.70;;;15.00;89.60;;;;;;4945785;28;20407;-75
2023/08/05 03:50:47;;;;;;;16.85;11.73;;;15.00;89.60;;;;;;4944044;28;20043;-75
2023/08/05 03:53:13;;;;;;;17.00;12.35;;;15.00;89.70;;;;;;4945156;29;20455;-78
2023/08/05 03:55:39;;;;;;;16.25;12.18;;;15.00;89.80;;;;;;4942829;28;20130;-76
2023/08/05 03:58:07;;;;;;;20.38;13.10;;;15.00;89.80;;;;;;4944328;29;20039;-75
2023/08/05 04:00:33;;;;;;;19.45;14.07;;;15.00;89.90;;;;;;4948773;28;20138;-73
2023/08/05 04:02:58;;;;;;;20.13;14.00;;;15.00;89.80;;;;;;4966098;28;20117;-76
2023/08/05 04:05:24;;;;;;;21.02;15.07;;;15.00;89.90;;;;;;4965195;28;20051;-74
2023/08/05 04:07:50;;;;;;;21.17;14.32;;;15.00;90.00;;;;;;4945328;28;20133;-75
2023/08/05 04:10:19;;;;;;;18.77;13.82;;;15.00;90.00;;;;;;4944536;28;20058;-76
2023/08/05 04:12:45;;;;;;;18.70;13.20;;;15.00;90.10;;;;;;4943136;28;20019;-75
2023/08/05 04:15:13;;;;;;;18.15;12.10;;;15.10;90.10;;;;;;4945684;28;20035;-76
2023/08/05 04:17:38;;;;;;;17.70;12.15;;;15.10;90.20;;;;;;4949677;28;20443;-75
2023/08/05 04:20:05;;;;;;;18.30;12.23;;;15.10;90.10;;;;;;4945684;28;20032;-76
2023/08/05 04:22:31;;;;;;;17.52;12.27;;;15.10;90.20;;;;;;4949225;28;20077;-76
2023/08/05 04:24:57;;;;;;;17.25;13.30;;;15.10;90.30;;;;;;4947082;28;20531;-76
2023/08/05 04:27:26;;;;;;;21.65;14.63;;;15.10;90.20;;;;;;4956460;28;20126;-76
2023/08/05 04:29:51;;;;;;;18.58;13.15;;;15.20;90.30;;;;;;4944260;28;20395;-76
2023/08/05 04:32:17;;;;;;;20.50;13.65;;;15.20;90.20;;;;;;4968976;28;20041;-79
2023/08/05 04:34:44;;;;;;;17.52;12.07;;;15.30;90.30;;;;;;4968406;28;20029;-75
2023/08/05 04:37:20;;;;;;;18.80;13.15;;;15.30;90.30;;;;;;4970644;28;20117;-77
2023/08/05 04:39:47;;;;;;;18.00;12.60;;;15.30;90.20;;;;;;4975718;28;21487;-76
2023/08/05 04:42:13;;;;;;;18.73;12.27;;;15.30;90.20;;;;;;4969030;28;20061;-75
2023/08/05 04:44:40;;;;;;;15.68;10.82;;;15.30;90.20;;;;;;4969958;28;20193;-74
2023/08/05 04:47:09;;;;;;;18.80;11.98;;;15.30;90.30;;;;;;4972101;28;20038;-77
2023/08/05 04:49:35;;;;;;;18.83;11.70;;;15.40;90.20;;;;;;4970047;28;20555;-77
2023/08/05 04:52:05;;;;;;;18.20;10.63;;;15.30;90.20;;;;;;4957738;28;20363;-79
2023/08/05 04:54:36;;;;;;;20.00;10.98;;;15.30;90.20;;;;;;4977044;28;20105;-75
2023/08/05 04:57:02;;;;;;;19.40;11.82;;;15.40;90.20;;;;;;4962125;28;20046;-76
2023/08/05 04:59:27;;;;;;;23.02;10.98;;;15.40;90.20;;;;;;4964578;28;20023;-75
2023/08/05 05:01:53;;;;;;;22.02;10.50;;;15.40;90.20;;;;;;4966060;28;20569;-75
2023/08/05 05:04:19;;;;;;;16.85;9.93;;;15.30;90.10;;;;;;4966579;28;20027;-76
2023/08/05 05:06:44;;;;;;;16.65;9.55;;;15.30;90.10;;;;;;4963711;28;20039;-75
2023/08/05 05:09:10;;;;;;;15.15;9.50;;;15.40;90.10;;;;;;4967036;28;20035;-75
2023/08/05 05:11:36;;;;;;;22.70;10.02;;;15.30;90.10;;;;;;4955414;28;20186;-76
2023/08/05 05:14:03;;;;;;;18.45;9.68;;;15.40;90.00;;;;;;4950283;28;20027;-75
2023/08/05 05:16:29;;;;;;;20.67;10.27;;;15.40;90.00;;;;;;4959165;28;20464;-75
2023/08/05 05:18:55;;;;;;;21.95;9.95;;;15.40;90.10;;;;;;4967638;28;20085;-75
2023/08/05 05:21:20;;;;;;;19.92;9.93;;;15.40;90.00;;;;;;4963954;28;20042;-75
2023/08/05 05:23:46;;;;;;;16.10;9.75;;;15.40;90.00;;;;;;4960734;28;20072;-76
2023/08/05 05:26:12;;;;;;;19.05;10.10;;;15.50;89.90;;;;;;4966022;28;20130;-74
2023/08/05 05:28:37;;;;;;;19.90;9.43;;;15.50;89.70;;;;;;4961837;28;20042;-75
2023/08/05 05:31:03;;;;;;;22.67;10.38;;;15.50;89.60;;;;;;4966525;28;20039;-76
2023/08/05 05:33:29;;;;;;;16.65;9.15;;;15.50;89.50;;;;;;4949280;28;20022;-75
2023/08/05 05:35:55;;;;;;;20.77;9.63;;;15.50;89.50;;;;;;4957777;28;20035;-75
2023/08/05 05:38:20;;;;;;;25.27;10.02;;;15.60;89.50;;;;;;4963779;28;20041;-75
2023/08/05 05:40:46;;;;;;;17.25;8.90;;;15.60;89.50;;;;;;4959524;28;20046;-74
2023/08/05 05:43:12;;;;;;;15.35;8.90;;;15.60;89.40;;;;;;4960492;28;20042;-76
2023/08/05 05:45:39;;;;;;;23.08;9.30;;;15.60;89.40;;;;;;4955598;28;20057;-76
2023/08/05 05:48:05;;;;;;;18.08;8.43;;;15.60;89.30;;;;;;4965948;28;20031;-76
2023/08/05 05:50:31;;;;;;;19.20;8.95;;;15.60;89.40;;;;;;4962288;28;20041;-74
2023/08/05 05:52:56;;;;;;;19.67;8.70;;;15.60;89.20;;;;;;4954514;28;20027;-78
2023/08/05 05:55:22;;;;;;;22.83;8.63;;;15.80;89.20;;;;;;4958400;28;20191;-76
2023/08/05 05:57:48;;;;;;;17.58;8.48;;;15.80;88.90;;;;;;4972261;28;20110;-75
2023/08/05 06:00:14;;;;;;;24.48;8.32;;;16.00;88.90;;;;;;4972789;28;20385;-76
2023/08/05 06:02:40;;;;;;;18.95;8.02;;;16.10;88.50;;;;;;4949478;28;20540;-74
2023/08/05 06:05:07;;;;;;;22.45;7.55;;;16.20;88.00;;;;;;4951850;28;20605;-75
2023/08/05 06:07:33;;;;;;;22.08;7.25;;;16.20;87.30;;;;;;4950223;28;20020;-75
2023/08/05 06:10:12;;;;;;;21.90;7.78;;;16.20;87.30;;;;;;4949476;28;20038;-76
2023/08/05 06:12:37;;;;;;;17.48;6.97;;;16.30;87.00;;;;;;4966915;28;20054;-74
2023/08/05 06:15:06;;;;;;;20.35;7.13;;;16.40;86.80;;;;;;4971213;28;20041;-76
2023/08/05 06:17:32;;;;;;;22.17;7.05;;;16.20;86.70;;;;;;4968989;28;20050;-76
2023/08/05 06:20:04;;;;;;;18.95;6.75;;;16.30;86.80;;;;;;4967881;28;20085;-76
2023/08/05 06:22:29;;;;;;;19.55;7.10;;;16.20;86.50;;;;;;4966428;28;20112;-75
2023/08/05 06:24:55;;;;;;;19.48;7.72;;;16.20;86.70;;;;;;4965306;28;20275;-76
2023/08/05 06:27:21;;;;;;;21.40;7.15;;;16.30;86.60;;;;;;4946006;28;20072;-73
2023/08/05 06:29:46;;;;;;;17.10;7.15;;;16.40;86.50;;;;;;4944177;29;20462;-74
2023/08/05 06:32:12;;;;;;;21.73;7.15;;;16.30;86.30;;;;;;4940769;28;20097;-74
2023/08/05 06:34:38;;;;;;;21.17;7.95;;;16.40;86.40;;;;;;4944195;28;20536;-73
2023/08/05 06:37:04;;;;;;;20.08;7.30;;;16.30;86.30;;;;;;4964271;28;20323;-73
2023/08/05 06:39:32;;;;;;;23.83;7.70;;;16.30;86.40;;;;;;4969360;28;20039;-73
2023/08/05 06:41:58;;;;;;;17.55;7.57;;;16.40;86.50;;;;;;4971413;28;20075;-75
2023/08/05 06:44:24;;;;;;;23.55;7.63;;;16.30;86.00;;;;;;4946554;28;20491;-75
2023/08/05 06:46:50;;;;;;;21.95;7.63;;;16.30;86.20;;;;;;4943720;28;20077;-74
2023/08/05 06:49:15;;;;;;;18.35;7.60;;;16.30;86.20;;;;;;4944186;28;20877;-73
2023/08/05 06:51:41;;;;;;;16.58;6.78;;;16.30;86.20;;;;;;4947896;28;20114;-74
2023/08/05 06:54:10;;;;;;;18.50;7.25;;;16.40;86.20;;;;;;4949036;28;20042;-75
2023/08/05 06:56:36;;;;;;;14.55;7.22;;;16.50;86.20;;;;;;4944940;28;20520;-74
2023/08/05 06:59:02;;;;;;;15.48;6.85;;;16.50;86.20;;;;;;4947699;28;20027;-75
2023/08/05 07:01:27;;;;;;;16.25;7.20;;;16.60;85.50;;;;;;4945781;28;20031;-75
2023/08/05 07:03:53;;;;;;;15.68;7.10;;;16.70;85.10;;;;;;4950451;28;20058;-75
2023/08/05 07:06:19;;;;;;;14.88;7.07;;;16.90;84.80;;;;;;4944525;28;20051;-75
2023/08/05 07:08:44;;;;;;;15.15;6.15;;;16.90;83.80;;;;;;4946442;28;20027;-74
2023/08/05 07:11:10;;;;;;;16.13;6.38;;;16.90;83.90;;;;;;4952776;28;20049;-74
2023/08/05 07:13:36;;;;;;;15.27;6.55;;;17.00;83.60;;;;;;4942784;28;20033;-74
2023/08/05 07:16:03;;;;;;;17.95;6.13;;;17.10;83.10;;;;;;4954295;28;20134;-74
2023/08/05 07:18:31;;;;;;;14.75;6.05;;;17.10;82.70;;;;;;4964702;28;20038;-74
2023/08/05 07:20:57;;;;;;;15.25;6.35;;;17.10;82.70;;;;;;4968902;28;20035;-75
2023/08/05 07:23:23;;;;;;;15.77;6.65;;;17.10;82.30;;;;;;4963751;28;20035;-74
2023/08/05 07:25:48;;;;;;;13.85;5.68;;;17.20;82.00;;;;;;4961077;28;20055;-74
2023/08/05 07:28:14;;;;;;;12.50;5.78;;;17.10;81.80;;;;;;4963695;28;20035;-75
2023/08/05 07:30:40;;;;;;;15.48;5.90;;;17.30;81.70;;;;;;4964120;28;20093;-74
2023/08/05 07:33:09;;;;;;;16.90;6.80;;;17.30;80.60;;;;;;4964904;28;20422;-74
2023/08/05 07:35:35;;;;;;;13.07;6.13;;;17.30;80.50;;;;;;4959296;28;20043;-74
2023/08/05 07:38:04;;;;;;;14.45;6.65;;;17.30;80.50;;;;;;4948840;28;20027;-73
2023/08/05 07:40:32;;;;;;;15.35;7.10;;;17.40;80.50;;;;;;4954108;28;20042;-74
2023/08/05 07:42:59;;;;;;;16.20;6.60;;;17.40;80.00;;;;;;4949332;28;20062;-73
2023/08/05 07:45:26;;;;;;;17.23;6.95;;;17.60;80.00;;;;;;4957835;28;20059;-73
2023/08/05 07:47:52;;;;;;;16.00;6.82;;;17.80;79.40;;;;;;4963509;28;20037;-75
2023/08/05 07:50:22;;;;;;;13.60;6.57;;;17.90;79.00;;;;;;4962536;28;23431;-73
2023/08/05 07:52:51;;;;;;;13.15;6.15;;;18.00;77.90;;;;;;4964205;28;20027;-74
2023/08/05 07:55:18;;;;;;;17.40;6.75;;;17.90;77.60;;;;;;4963498;28;20038;-73
2023/08/05 07:57:46;;;;;;;14.18;6.72;;;17.80;77.60;;;;;;4963751;28;20023;-75
2023/08/05 08:00:13;;;;;;;12.85;6.30;;;17.80;77.70;;;;;;4962162;28;20391;-74
2023/08/05 08:02:44;;;;;;;16.75;7.28;;;17.90;77.30;;;;;;4964368;28;20119;-74
2023/08/05 08:05:13;;;;;;;16.85;7.15;;;17.90;77.70;;;;;;4963012;28;20702;-73
2023/08/05 08:07:46;;;;;;;12.60;6.50;;;17.90;77.50;;;;;;4965250;28;20019;-74
2023/08/05 08:10:13;;;;;;;13.43;6.15;;;18.00;77.50;;;;;;4966457;28;20030;-75
2023/08/05 08:12:39;;;;;;;15.27;6.72;;;18.00;77.90;;;;;;4963717;28;20021;-75
2023/08/05 08:15:14;;;;;;;15.30;6.25;;;17.80;77.30;;;;;;4963298;28;20031;-74
2023/08/05 08:17:39;;;;;;;15.82;6.40;;;17.80;77.10;;;;;;4954062;28;20504;-74
2023/08/05 08:20:06;;;;;;;11.68;5.35;;;17.70;77.00;;;;;;4955464;28;20102;-75
2023/08/05 08:22:32;;;;;;;13.10;5.85;;;17.60;76.80;;;;;;4951653;28;20027;-74
2023/08/05 08:24:57;;;;;;;12.23;5.70;;;17.60;76.90;;;;;;4949098;28;20023;-74
2023/08/05 08:27:23;;;;;;;12.00;6.28;;;17.70;76.50;;;;;;4968238;28;20102;-74
2023/08/05 08:29:49;;;;;;;11.82;5.65;;;17.70;76.20;;;;;;4968191;28;20038;-73
2023/08/05 08:32:14;;;;;;;13.32;5.78;;;17.80;76.30;;;;;;4945458;28;20071;-75
2023/08/05 08:34:40;;;;;;;13.80;5.68;;;17.80;75.40;;;;;;4941130;28;20698;-76
2023/08/05 08:37:06;;;;;;;11.40;5.68;;;17.90;75.20;;;;;;4961182;28;20035;-74
2023/08/05 08:39:31;;;;;;;13.27;6.38;;;17.90;74.80;;;;;;4965314;28;20062;-73
2023/08/05 08:41:58;;;;;;;12.38;6.35;;;18.20;74.50;;;;;;4962908;28;20078;-74
2023/08/05 08:44:27;;;;;;;13.38;5.85;;;18.40;74.50;;;;;;4966291;28;20039;-73
2023/08/05 08:46:53;;;;;;;9.88;5.43;;;18.60;73.30;;;;;;4965262;28;20129;-75
2023/08/05 08:49:20;;;;;;;11.52;5.43;;;18.70;73.00;;;;;;4965517;28;20031;-74
2023/08/05 08:51:49;;;;;;;11.30;5.03;;;18.80;72.40;;;;;;4966098;28;20387;-74
2023/08/05 08:54:17;;;;;;;13.35;5.22;;;18.70;72.10;;;;;;4966540;28;20414;-74
2023/08/05 08:56:43;;;;;;;10.73;6.00;;;18.60;72.90;;;;;;4963060;28;20043;-75
2023/08/05 08:59:09;;;;;;;8.95;4.28;;;18.60;71.80;;;;;;4965521;28;20404;-76
2023/08/05 09:01:39;;;;;;;8.55;4.55;;;18.60;71.00;;;;;;4962423;28;20066;-74
2023/08/05 09:04:06;;;;;;;9.75;4.53;;;18.60;71.90;;;;;;4964724;28;20038;-74
2023/08/05 09:06:32;;;;;;;11.27;4.80;;;18.60;71.00;;;;;;4966558;28;20100;-74
2023/08/05 09:08:58;;;;;;;12.73;4.80;;;18.30;70.70;;;;;;4964755;28;20019;-75
2023/08/05 09:11:24;;;;;;;10.10;4.25;;;18.10;71.40;;;;;;4965601;28;20490;-75
2023/08/05 09:13:52;;;;;;;9.57;4.90;;;18.00;71.60;;;;;;4977225;28;20034;-74
2023/08/05 09:16:18;;;;;;;7.80;4.10;;;18.10;71.50;;;;;;4975960;28;20035;-74
2023/08/05 09:18:52;;;;;;;9.00;4.50;;;18.10;72.00;;;;;;4973652;28;20026;-73
2023/08/05 09:21:24;;;;;;;;;;;18.40;72.20;;;;;;4976480;28;20047;-74
2023/08/05 09:23:52;;;;;;;8.50;4.25;;;19.00;71.40;;;;;;4965697;28;19911;-74
2023/08/05 09:26:32;;;;;;;13.55;3.97;;;19.80;70.40;;;;;;4961200;28;20055;-74
2023/08/05 09:28:59;;;;;;;8.73;4.43;;;20.60;67.10;;;;;;4946478;28;20431;-75
2023/08/05 09:31:25;;;;;;;11.02;4.22;;;20.50;64.70;;;;;;4957840;28;20095;-75
2023/08/05 09:33:51;;;;;;;7.80;4.18;;;20.60;64.30;;;;;;4973300;28;20026;-74
2023/08/05 09:36:20;;;;;;;9.73;4.22;;;20.50;64.50;;;;;;4961200;28;20099;-74
2023/08/05 09:38:46;;;;;;;7.40;3.92;;;20.20;63.00;;;;;;4950979;28;20030;-74
2023/08/05 09:41:12;;;;;;;9.45;4.28;;;20.00;63.00;;;;;;4959110;28;20465;-74
2023/08/05 09:43:43;;;;;;;12.20;5.40;;;19.50;63.70;;;;;;4951429;28;20267;-75
2023/08/05 09:46:12;;;;;;;10.98;5.10;;;19.10;64.30;;;;;;4945714;28;20051;-73
2023/08/05 09:48:42;;;;;;;9.77;4.85;;;18.90;65.70;;;;;;4951334;28;20038;-73
2023/08/05 09:51:14;;;;;;;9.38;4.50;;;18.60;66.60;;;;;;4953320;28;20046;-74
2023/08/05 09:53:40;;;;;;;9.55;4.70;;;18.60;67.20;;;;;;4949226;28;20467;-75
2023/08/05 09:56:06;;;;;;;10.88;4.43;;;18.40;67.90;;;;;;4957785;28;20145;-77
2023/08/05 09:58:37;;;;;;;11.90;5.90;;;18.20;68.10;;;;;;4950016;28;20101;-75
2023/08/05 10:01:07;;;;;;;10.52;5.60;;;18.10;67.60;;;;;;4952556;28;20496;-75
2023/08/05 10:03:37;;;;;;;11.90;5.75;;;17.90;67.90;;;;;;4948615;28;20664;-73
2023/08/05 10:06:08;;;;;;;11.48;5.40;;;17.80;68.20;;;;;;4962891;28;20040;-73
2023/08/05 10:08:36;;;;;;;14.05;6.53;;;17.70;68.80;;;;;;4952886;28;20023;-75
2023/08/05 10:11:03;;;;;;;10.68;5.45;;;17.50;68.90;;;;;;4949004;28;20377;-73
2023/08/05 10:13:32;;;;;;;10.93;5.45;;;17.40;69.30;;;;;;4951958;28;20027;-73
2023/08/05 10:15:58;;;;;;;9.63;5.65;;;17.40;69.80;;;;;;4948869;28;20037;-74
2023/08/05 10:18:25;;;;;;;15.88;6.40;;;17.40;70.10;;;;;;4951882;28;20109;-74
2023/08/05 10:20:52;;;;;;;15.82;6.35;;;17.30;70.70;;;;;;4952146;28;20035;-74
2023/08/05 10:23:18;;;;;;;10.60;6.05;;;17.30;74.20;;;;;;4956613;28;20027;-74
2023/08/05 10:25:46;;;;;;;11.68;5.43;;;17.30;74.90;;;;;;4965751;28;20133;-74
2023/08/05 10:28:25;;;;;;;12.18;5.75;;;17.40;76.00;;;;;;4965542;28;20500;-76
2023/08/05 10:30:52;;;;;;;9.73;5.65;;;17.60;76.30;;;;;;4966220;28;20114;-74
2023/08/05 10:33:18;;;;;;;10.65;5.45;;;17.80;76.20;;;;;;4966176;28;20031;-75
2023/08/05 10:35:44;;;;;;;13.63;5.53;;;18.00;76.30;;;;;;4966646;28;20073;-74
2023/08/05 10:38:24;;;;;;;14.60;5.68;;;18.10;75.50;;;;;;4964937;28;20468;-74
2023/08/05 10:41:00;;;;;;;12.00;4.68;;;18.10;75.60;;;;;;4965052;28;20038;-75
2023/08/05 10:43:31;;;;;;;9.82;4.60;;;18.30;75.20;;;;;;4967874;28;21074;-73
2023/08/05 10:45:58;;;;;;;13.40;5.57;;;18.30;74.80;;;;;;4965076;28;20462;-74
2023/08/05 10:48:33;;;;;;;11.60;4.10;;;18.20;75.10;;;;;;4964394;28;20033;-75
2023/08/05 10:51:08;;;;;;;10.63;4.20;;;18.20;74.60;;;;;;4960454;28;20034;-75
2023/08/05 10:53:34;;;;;;;8.32;4.22;;;18.10;74.20;;;;;;4942018;28;20507;-76
2023/08/05 10:56:01;;;;;;;10.93;4.47;;;18.00;74.60;;;;;;4956001;28;20035;-75
2023/08/05 10:58:34;;;;;;;10.68;4.45;;;18.10;74.20;;;;;;4960886;28;20407;-75
2023/08/05 11:01:04;;;;;;;8.18;3.97;;;18.00;74.30;;;;;;4962086;28;20026;-75
2023/08/05 11:03:33;;;;;;;10.70;4.60;;;18.10;74.30;;;;;;4962157;28;20076;-76
2023/08/05 11:06:05;;;;;;;9.02;4.40;;;18.10;74.20;;;;;;4961135;28;20077;-75
2023/08/05 11:08:32;;;;;;;10.68;4.05;;;18.10;74.70;;;;;;4981319;28;20019;-75
2023/08/05 11:11:02;;;;;;;9.00;3.90;;;18.10;73.90;;;;;;4966231;28;20332;-75
2023/08/05 11:13:32;;;;;;;9.10;4.70;;;18.20;74.30;;;;;;4965620;28;20059;-76
2023/08/05 11:16:11;;;;;;;10.88;3.90;;;18.10;73.50;;;;;;4957041;28;20035;-75
2023/08/05 11:18:39;;;;;;;8.15;4.10;;;18.30;73.60;;;;;;4938586;28;20031;-76
2023/08/05 11:21:07;;;;;;;10.38;4.15;;;18.60;74.10;;;;;;4940784;28;20106;-75
2023/08/05 11:23:34;;;;;;;7.93;4.07;;;18.60;73.60;;;;;;4941219;28;20054;-76
2023/08/05 11:26:01;;;;;;;10.95;4.07;;;18.60;74.60;;;;;;4940555;28;20477;-77
2023/08/05 11:28:27;;;;;;;10.40;4.93;;;18.80;74.10;;;;;;4940320;28;20618;-74
2023/08/05 11:30:54;;;;;;;10.50;4.38;;;18.80;72.80;;;;;;4940633;28;20027;-74
2023/08/05 11:33:21;;;;;;;8.05;3.72;;;19.00;71.60;;;;;;4938805;28;20047;-74
2023/08/05 11:35:48;;;;;;;10.13;4.68;;;19.20;70.10;;;;;;4941230;28;20038;-75
2023/08/05 11:38:21;;;;;;;10.10;4.28;;;19.40;69.30;;;;;;4936541;28;20032;-78
2023/08/05 11:40:57;;;;;;;9.52;4.28;;;19.50;68.20;;;;;;4943556;28;20041;-73
2023/08/05 11:43:23;;;;;;;9.07;3.97;;;19.20;69.40;;;;;;4956551;28;20034;-75
2023/08/05 11:45:51;;;;;;;8.48;3.83;;;19.20;68.20;;;;;;4959142;28;20057;-74
2023/08/05 11:48:20;;;;;;;9.80;4.18;;;19.20;70.60;;;;;;4961033;28;20093;-77
2023/08/05 11:50:46;;;;;;;9.75;4.22;;;19.20;70.80;;;;;;4960194;28;20543;-75
2023/08/05 11:53:12;;;;;;;8.32;4.03;;;19.30;71.20;;;;;;4963892;28;20030;-77
2023/08/05 11:55:39;;;;;;;10.55;4.30;;;19.30;72.10;;;;;;4959286;28;20061;-75
2023/08/05 11:58:06;;;;;;;8.45;4.32;;;19.30;71.60;;;;;;4962907;28;20037;-76
2023/08/05 12:00:33;;;;;;;7.82;4.05;;;19.10;70.50;;;;;;4961448;28;20126;-74
2023/08/05 12:03:01;;;;;;;10.05;3.95;;;19.00;70.40;;;;;;4965023;28;20736;-73
2023/08/05 12:05:27;;;;;;;12.10;4.85;;;19.00;71.80;;;;;;4967081;28;20054;-77
2023/08/05 12:07:52;;;;;;;10.77;5.07;;;19.00;72.20;;;;;;4966926;28;20355;-75
2023/08/05 12:10:20;;;;;;;11.35;4.22;;;18.80;72.70;;;;;;4967885;28;20027;-75
2023/08/05 12:12:47;;;;;;;9.38;4.65;;;18.80;73.80;;;;;;4962991;28;20027;-75
2023/08/05 12:15:17;;;;;;;10.20;4.90;;;18.70;73.30;;;;;;4965442;28;20026;-76
2023/08/05 12:17:50;;;;;;;11.07;4.82;;;18.60;73.20;;;;;;4957717;28;20110;-74
2023/08/05 12:20:24;;;;;;;9.52;4.20;;;18.50;74.00;;;;;;4954977;28;20119;-73
2023/08/05 12:22:51;;;;;;;14.63;4.90;;;18.40;73.30;;;;;;4966526;28;20110;-78
2023/08/05 12:25:16;;;;;;;9.05;4.18;;;18.10;73.70;;;;;;4963804;28;20294;-76
2023/08/05 12:27:42;;;;;;;6.88;3.60;;;18.00;73.60;;;;;;4964625;28;20030;-76
2023/08/05 12:30:09;;;;;;;6.43;3.50;;;17.80;73.70;;;;;;4965704;28;20035;-74
2023/08/05 12:32:35;;;;;;;7.35;3.00;;;17.80;71.40;;;;;;4965778;28;20109;-76
2023/08/05 12:35:05;;;;;;;6.13;3.08;;;17.80;68.10;;;;;;4962300;28;20054;-75